sensor_id;sensor_type;location;lat;lon;timestamp;pressure;altitude;pressure_sealevel;temperature;humidity
72262;BME280;60173;52.112;8.648;2023-07-20T00:01:21;100326.91;;;15.72;84.54
72262;BME280;60173;52.112;8.648;2023-07-20T00:03:47;100321.44;;;15.72;84.63
72262;BME280;60173;52.112;8.648;2023-07-20T00:06:13;100325.31;;;15.71;84.80
72262;BME280;60173;52.112;8.648;2023-07-20T00:08:40;100321.31;;;15.68;84.72
72262;BME280;60173;52.112;8.648;2023-07-20T00:11:06;100325.13;;;15.67;85.22
72262;BME280;60173;52.112;8.648;2023-07-20T00:13:32;100319.00;;;15.70;84.91
72262;BME280;60173;52.112;8.648;2023-07-20T00:15:59;100319.50;;;15.72;85.08
72262;BME280;60173;52.112;8.648;2023-07-20T00:18:25;100313.81;;;15.77;84.80
72262;BME280;60173;52.112;8.648;2023-07-20T00:20:51;100309.94;;;15.78;84.93
72262;BME280;60173;52.112;8.648;2023-07-20T00:23:17;100310.03;;;15.82;84.72
72262;BME280;60173;52.112;8.648;2023-07-20T00:25:44;100311.53;;;15.79;83.73
72262;BME280;60173;52.112;8.648;2023-07-20T00:28:10;100315.06;;;15.59;84.51
72262;BME280;60173;52.112;8.648;2023-07-20T00:30:37;100311.34;;;15.43;85.63
72262;BME280;60173;52.112;8.648;2023-07-20T00:33:04;100318.22;;;15.28;86.41
72262;BME280;60173;52.112;8.648;2023-07-20T00:35:30;100319.00;;;15.28;86.68
72262;BME280;60173;52.112;8.648;2023-07-20T00:37:56;100312.88;;;15.31;86.80
72262;BME280;60173;52.112;8.648;2023-07-20T00:40:23;100309.00;;;15.32;86.66
72262;BME280;60173;52.112;8.648;2023-07-20T00:42:49;100307.41;;;15.31;86.58
72262;BME280;60173;52.112;8.648;2023-07-20T00:45:15;100304.84;;;15.26;87.44
72262;BME280;60173;52.112;8.648;2023-07-20T00:47:41;100309.53;;;15.26;87.77
72262;BME280;60173;52.112;8.648;2023-07-20T00:50:08;100311.00;;;15.23;88.07
72262;BME280;60173;52.112;8.648;2023-07-20T00:52:35;100305.53;;;15.23;88.54
72262;BME280;60173;52.112;8.648;2023-07-20T00:55:03;100309.84;;;15.24;88.71
72262;BME280;60173;52.112;8.648;2023-07-20T00:57:29;100311.00;;;15.23;89.01
72262;BME280;60173;52.112;8.648;2023-07-20T00:59:56;100306.44;;;15.27;89.36
72262;BME280;60173;52.112;8.648;2023-07-20T01:02:22;100309.66;;;15.29;89.06
72262;BME280;60173;52.112;8.648;2023-07-20T01:04:49;100307.66;;;15.38;88.39
72262;BME280;60173;52.112;8.648;2023-07-20T01:07:25;100303.81;;;15.40;87.91
72262;BME280;60173;52.112;8.648;2023-07-20T01:10:54;100305.25;;;15.37;87.97
72262;BME280;60173;52.112;8.648;2023-07-20T01:12:50;100312.19;;;15.34;88.85
72262;BME280;60173;52.112;8.648;2023-07-20T01:15:17;100310.63;;;15.33;88.21
72262;BME280;60173;52.112;8.648;2023-07-20T01:17:44;100310.19;;;15.23;89.20
72262;BME280;60173;52.112;8.648;2023-07-20T01:20:12;100309.72;;;15.21;88.84
72262;BME280;60173;52.112;8.648;2023-07-20T01:27:56;100296.16;;;15.24;88.38
72262;BME280;60173;52.112;8.648;2023-07-20T01:33:15;100292.69;;;15.15;89.11
72262;BME280;60173;52.112;8.648;2023-07-20T01:35:41;100292.44;;;15.08;89.95
72262;BME280;60173;52.112;8.648;2023-07-20T01:38:09;100296.97;;;15.04;90.11
72262;BME280;60173;52.112;8.648;2023-07-20T01:40:35;100299.91;;;14.99;90.51
72262;BME280;60173;52.112;8.648;2023-07-20T01:43:02;100292.81;;;14.98;91.27
72262;BME280;60173;52.112;8.648;2023-07-20T01:45:28;100286.50;;;15.06;91.19
72262;BME280;60173;52.112;8.648;2023-07-20T01:47:55;100288.25;;;15.10;91.12
72262;BME280;60173;52.112;8.648;2023-07-20T01:50:21;100288.25;;;15.10;91.37
72262;BME280;60173;52.112;8.648;2023-07-20T01:52:47;100282.28;;;15.08;91.10
72262;BME280;60173;52.112;8.648;2023-07-20T01:55:14;100282.84;;;15.02;91.02
72262;BME280;60173;52.112;8.648;2023-07-20T01:57:40;100279.31;;;14.92;92.08
72262;BME280;60173;52.112;8.648;2023-07-20T02:00:07;100276.94;;;14.91;92.14
72262;BME280;60173;52.112;8.648;2023-07-20T02:02:33;100276.16;;;14.90;92.21
72262;BME280;60173;52.112;8.648;2023-07-20T02:04:59;100276.81;;;14.87;92.78
72262;BME280;60173;52.112;8.648;2023-07-20T02:07:26;100287.75;;;14.87;92.17
72262;BME280;60173;52.112;8.648;2023-07-20T02:09:52;100278.41;;;14.88;91.83
72262;BME280;60173;52.112;8.648;2023-07-20T02:12:18;100279.19;;;14.89;91.94
72262;BME280;60173;52.112;8.648;2023-07-20T02:14:45;100287.09;;;14.90;92.76
72262;BME280;60173;52.112;8.648;2023-07-20T02:17:11;100282.34;;;15.00;92.85
72262;BME280;60173;52.112;8.648;2023-07-20T02:19:37;100284.97;;;14.96;92.34
72262;BME280;60173;52.112;8.648;2023-07-20T02:22:04;100284.34;;;14.90;93.09
72262;BME280;60173;52.112;8.648;2023-07-20T02:24:30;100282.94;;;14.84;93.91
72262;BME280;60173;52.112;8.648;2023-07-20T02:26:56;100284.66;;;14.89;93.89
72262;BME280;60173;52.112;8.648;2023-07-20T02:29:23;100282.41;;;14.91;93.54
72262;BME280;60173;52.112;8.648;2023-07-20T02:31:49;100278.69;;;14.96;92.70
72262;BME280;60173;52.112;8.648;2023-07-20T02:34:15;100281.75;;;14.94;92.75
72262;BME280;60173;52.112;8.648;2023-07-20T02:36:42;100270.81;;;14.94;92.48
72262;BME280;60173;52.112;8.648;2023-07-20T02:39:08;100277.75;;;14.91;92.23
72262;BME280;60173;52.112;8.648;2023-07-20T02:41:34;100279.19;;;14.89;92.63
72262;BME280;60173;52.112;8.648;2023-07-20T02:44:01;100283.88;;;14.88;93.41
72262;BME280;60173;52.112;8.648;2023-07-20T02:46:27;100294.59;;;15.23;91.88
72262;BME280;60173;52.112;8.648;2023-07-20T02:48:53;100291.63;;;15.49;89.99
72262;BME280;60173;52.112;8.648;2023-07-20T02:51:20;100295.38;;;15.45;89.83
72262;BME280;60173;52.112;8.648;2023-07-20T02:53:46;100278.41;;;14.88;91.30
72262;BME280;60173;52.112;8.648;2023-07-20T02:56:12;100293.44;;;15.03;92.11
72262;BME280;60173;52.112;8.648;2023-07-20T02:58:41;100296.09;;;15.33;89.89
72262;BME280;60173;52.112;8.648;2023-07-20T03:01:08;100302.34;;;15.42;88.62
72262;BME280;60173;52.112;8.648;2023-07-20T03:03:34;100299.25;;;15.44;88.72
72262;BME280;60173;52.112;8.648;2023-07-20T03:06:01;100309.59;;;15.17;89.92
72262;BME280;60173;52.112;8.648;2023-07-20T03:08:27;100306.19;;;14.99;90.91
72262;BME280;60173;52.112;8.648;2023-07-20T03:10:53;100306.41;;;14.85;92.81
72262;BME280;60173;52.112;8.648;2023-07-20T03:13:20;100318.09;;;14.65;94.10
72262;BME280;60173;52.112;8.648;2023-07-20T03:15:46;100310.06;;;14.60;94.78
72262;BME280;60173;52.112;8.648;2023-07-20T03:18:12;100311.66;;;14.61;94.94
72262;BME280;60173;52.112;8.648;2023-07-20T03:20:39;100312.19;;;14.54;94.22
72262;BME280;60173;52.112;8.648;2023-07-20T03:23:05;100312.66;;;14.47;94.09
72262;BME280;60173;52.112;8.648;2023-07-20T03:25:31;100305.91;;;14.54;94.74
72262;BME280;60173;52.112;8.648;2023-07-20T03:27:58;100306.72;;;14.45;94.62
72262;BME280;60173;52.112;8.648;2023-07-20T03:30:24;100309.13;;;14.56;94.79
72262;BME280;60173;52.112;8.648;2023-07-20T03:32:50;100305.59;;;14.46;94.00
72262;BME280;60173;52.112;8.648;2023-07-20T03:35:17;100309.63;;;14.40;94.04
72262;BME280;60173;52.112;8.648;2023-07-20T03:37:43;100314.63;;;14.38;94.30
72262;BME280;60173;52.112;8.648;2023-07-20T03:40:09;100312.34;;;14.40;94.63
72262;BME280;60173;52.112;8.648;2023-07-20T03:42:36;100310.47;;;14.32;95.09
72262;BME280;60173;52.112;8.648;2023-07-20T03:45:02;100314.38;;;14.14;95.25
72262;BME280;60173;52.112;8.648;2023-07-20T03:47:29;100312.97;;;13.99;95.18
72262;BME280;60173;52.112;8.648;2023-07-20T03:49:55;100312.03;;;13.95;96.68
72262;BME280;60173;52.112;8.648;2023-07-20T03:52:22;100320.38;;;13.81;97.49
72262;BME280;60173;52.112;8.648;2023-07-20T03:54:48;100325.69;;;13.77;98.62
72262;BME280;60173;52.112;8.648;2023-07-20T03:57:14;100329.53;;;13.76;99.17
72262;BME280;60173;52.112;8.648;2023-07-20T03:59:45;100333.09;;;13.77;99.34
72262;BME280;60173;52.112;8.648;2023-07-20T04:02:11;100326.34;;;13.66;99.29
72262;BME280;60173;52.112;8.648;2023-07-20T04:04:38;100338.38;;;13.56;99.43
72262;BME280;60173;52.112;8.648;2023-07-20T04:07:04;100337.06;;;13.53;99.77
72262;BME280;60173;52.112;8.648;2023-07-20T04:09:31;100340.78;;;13.57;99.50
72262;BME280;60173;52.112;8.648;2023-07-20T04:11:57;100345.59;;;13.61;99.65
72262;BME280;60173;52.112;8.648;2023-07-20T04:14:24;100347.03;;;13.67;99.60
72262;BME280;60173;52.112;8.648;2023-07-20T04:16:50;100354.44;;;13.66;99.57
72262;BME280;60173;52.112;8.648;2023-07-20T04:19:17;100347.84;;;13.76;99.83
72262;BME280;60173;52.112;8.648;2023-07-20T04:21:43;100351.69;;;13.84;99.57
72262;BME280;60173;52.112;8.648;2023-07-20T04:24:09;100357.16;;;13.84;99.80
72262;BME280;60173;52.112;8.648;2023-07-20T04:26:36;100342.06;;;13.86;99.74
72262;BME280;60173;52.112;8.648;2023-07-20T04:29:02;100355.38;;;13.88;99.60
72262;BME280;60173;52.112;8.648;2023-07-20T04:31:29;100346.88;;;13.72;100.00
72262;BME280;60173;52.112;8.648;2023-07-20T04:33:55;100361.00;;;13.74;100.00
72262;BME280;60173;52.112;8.648;2023-07-20T04:36:21;100359.88;;;13.75;100.00
72262;BME280;60173;52.112;8.648;2023-07-20T04:38:48;100359.09;;;13.83;100.00
72262;BME280;60173;52.112;8.648;2023-07-20T04:41:14;100373.19;;;13.85;100.00
72262;BME280;60173;52.112;8.648;2023-07-20T04:43:41;100370.66;;;13.80;100.00
72262;BME280;60173;52.112;8.648;2023-07-20T04:46:07;100366.31;;;13.70;100.00
72262;BME280;60173;52.112;8.648;2023-07-20T04:48:33;100366.78;;;13.64;100.00
72262;BME280;60173;52.112;8.648;2023-07-20T04:51:00;100367.91;;;13.63;100.00
72262;BME280;60173;52.112;8.648;2023-07-20T04:53:26;100366.00;;;13.63;100.00
72262;BME280;60173;52.112;8.648;2023-07-20T04:55:52;100370.31;;;13.73;100.00
72262;BME280;60173;52.112;8.648;2023-07-20T04:58:19;100370.16;;;13.78;100.00
72262;BME280;60173;52.112;8.648;2023-07-20T05:00:45;100377.06;;;13.84;100.00
72262;BME280;60173;52.112;8.648;2023-07-20T05:03:11;100376.25;;;13.92;100.00
72262;BME280;60173;52.112;8.648;2023-07-20T05:05:38;100362.25;;;14.02;99.64
72262;BME280;60173;52.112;8.648;2023-07-20T05:08:04;100360.16;;;14.08;99.54
72262;BME280;60173;52.112;8.648;2023-07-20T05:10:31;100367.53;;;14.16;98.95
72262;BME280;60173;52.112;8.648;2023-07-20T05:12:57;100358.53;;;14.33;97.90
72262;BME280;60173;52.112;8.648;2023-07-20T05:15:24;100366.34;;;14.43;98.05
72262;BME280;60173;52.112;8.648;2023-07-20T05:17:50;100375.03;;;14.45;97.77
72262;BME280;60173;52.112;8.648;2023-07-20T05:20:16;100378.25;;;14.47;97.79
72262;BME280;60173;52.112;8.648;2023-07-20T05:22:43;100374.22;;;14.45;96.86
72262;BME280;60173;52.112;8.648;2023-07-20T05:25:10;100385.31;;;14.48;96.25
72262;BME280;60173;52.112;8.648;2023-07-20T05:27:37;100388.84;;;14.58;96.79
72262;BME280;60173;52.112;8.648;2023-07-20T05:30:03;100381.78;;;14.57;97.28
72262;BME280;60173;52.112;8.648;2023-07-20T05:32:30;100377.75;;;14.63;96.57
72262;BME280;60173;52.112;8.648;2023-07-20T05:34:56;100390.59;;;14.62;96.23
72262;BME280;60173;52.112;8.648;2023-07-20T05:37:23;100383.03;;;14.68;96.02
72262;BME280;60173;52.112;8.648;2023-07-20T05:39:49;100385.28;;;14.66;96.89
72262;BME280;60173;52.112;8.648;2023-07-20T05:42:15;100387.94;;;14.83;95.08
72262;BME280;60173;52.112;8.648;2023-07-20T05:44:42;100394.19;;;14.92;94.54
72262;BME280;60173;52.112;8.648;2023-07-20T05:47:08;100392.44;;;14.88;93.55
72262;BME280;60173;52.112;8.648;2023-07-20T05:49:35;100394.06;;;14.80;93.02
72262;BME280;60173;52.112;8.648;2023-07-20T05:52:01;100387.28;;;14.86;94.77
72262;BME280;60173;52.112;8.648;2023-07-20T05:54:27;100393.16;;;15.06;94.90
72262;BME280;60173;52.112;8.648;2023-07-20T05:56:54;100394.09;;;15.10;93.21
72262;BME280;60173;52.112;8.648;2023-07-20T05:59:20;100405.34;;;15.17;92.15
72262;BME280;60173;52.112;8.648;2023-07-20T06:01:46;100408.13;;;15.08;91.72
72262;BME280;60173;52.112;8.648;2023-07-20T06:04:13;100404.00;;;14.94;94.29
72262;BME280;60173;52.112;8.648;2023-07-20T06:06:39;100407.59;;;15.15;91.95
72262;BME280;60173;52.112;8.648;2023-07-20T06:09:05;100412.34;;;15.27;90.48
72262;BME280;60173;52.112;8.648;2023-07-20T06:11:32;100407.22;;;15.25;90.08
72262;BME280;60173;52.112;8.648;2023-07-20T06:13:58;100410.28;;;15.24;90.95
72262;BME280;60173;52.112;8.648;2023-07-20T06:16:24;100414.47;;;15.21;89.38
72262;BME280;60173;52.112;8.648;2023-07-20T06:18:51;100412.56;;;15.22;89.38
72262;BME280;60173;52.112;8.648;2023-07-20T06:21:18;100415.19;;;15.39;90.11
72262;BME280;60173;52.112;8.648;2023-07-20T06:23:44;100425.97;;;15.65;89.12
72262;BME280;60173;52.112;8.648;2023-07-20T06:26:10;100412.69;;;15.76;87.24
72262;BME280;60173;52.112;8.648;2023-07-20T06:28:36;100422.34;;;16.03;83.63
72262;BME280;60173;52.112;8.648;2023-07-20T06:31:03;100420.84;;;16.39;82.20
72262;BME280;60173;52.112;8.648;2023-07-20T06:33:30;100425.56;;;16.50;80.32
72262;BME280;60173;52.112;8.648;2023-07-20T06:35:56;100432.34;;;16.99;79.83
72262;BME280;60173;52.112;8.648;2023-07-20T06:38:22;100431.06;;;16.84;75.57
72262;BME280;60173;52.112;8.648;2023-07-20T06:40:52;100434.50;;;16.81;77.14
72262;BME280;60173;52.112;8.648;2023-07-20T06:43:18;100432.28;;;16.86;77.34
72262;BME280;60173;52.112;8.648;2023-07-20T06:45:53;100429.13;;;16.63;76.77
72262;BME280;60173;52.112;8.648;2023-07-20T06:48:20;100433.72;;;16.05;78.04
72262;BME280;60173;52.112;8.648;2023-07-20T06:50:47;100430.41;;;16.20;77.24
72262;BME280;60173;52.112;8.648;2023-07-20T06:53:13;100432.88;;;16.13;77.64
72262;BME280;60173;52.112;8.648;2023-07-20T06:55:41;100434.97;;;16.28;78.76
72262;BME280;60173;52.112;8.648;2023-07-20T06:58:08;100436.00;;;16.24;79.18
72262;BME280;60173;52.112;8.648;2023-07-20T07:00:34;100435.31;;;16.60;77.56
72262;BME280;60173;52.112;8.648;2023-07-20T07:03:00;100439.44;;;16.66;77.52
72262;BME280;60173;52.112;8.648;2023-07-20T07:05:27;100432.44;;;16.57;76.99
72262;BME280;60173;52.112;8.648;2023-07-20T07:08:02;100442.91;;;16.76;74.10
72262;BME280;60173;52.112;8.648;2023-07-20T07:10:29;100453.66;;;16.14;76.42
72262;BME280;60173;52.112;8.648;2023-07-20T07:12:55;100445.06;;;16.70;73.33
72262;BME280;60173;52.112;8.648;2023-07-20T07:15:21;100450.97;;;16.72;71.85
72262;BME280;60173;52.112;8.648;2023-07-20T07:17:47;100448.88;;;16.57;74.27
72262;BME280;60173;52.112;8.648;2023-07-20T07:20:14;100449.19;;;16.43;72.66
72262;BME280;60173;52.112;8.648;2023-07-20T07:22:46;100443.19;;;16.28;72.41
72262;BME280;60173;52.112;8.648;2023-07-20T07:25:13;100452.38;;;16.33;73.29
72262;BME280;60173;52.112;8.648;2023-07-20T07:27:39;100453.00;;;16.63;72.13
72262;BME280;60173;52.112;8.648;2023-07-20T07:30:06;100448.78;;;16.53;71.93
72262;BME280;60173;52.112;8.648;2023-07-20T07:32:32;100447.78;;;16.37;73.67
72262;BME280;60173;52.112;8.648;2023-07-20T07:34:59;100442.78;;;16.39;73.71
72262;BME280;60173;52.112;8.648;2023-07-20T07:37:25;100448.09;;;16.56;72.04
72262;BME280;60173;52.112;8.648;2023-07-20T07:39:51;100453.06;;;16.75;72.13
72262;BME280;60173;52.112;8.648;2023-07-20T07:42:18;100449.78;;;16.82;69.79
72262;BME280;60173;52.112;8.648;2023-07-20T07:44:44;100458.50;;;16.96;69.38
72262;BME280;60173;52.112;8.648;2023-07-20T07:47:10;100457.81;;;17.11;68.65
72262;BME280;60173;52.112;8.648;2023-07-20T07:49:37;100463.78;;;17.01;68.42
72262;BME280;60173;52.112;8.648;2023-07-20T07:52:03;100464.22;;;16.58;69.61
72262;BME280;60173;52.112;8.648;2023-07-20T07:54:30;100469.00;;;16.94;69.51
72262;BME280;60173;52.112;8.648;2023-07-20T07:56:56;100467.91;;;17.20;66.79
72262;BME280;60173;52.112;8.648;2023-07-20T07:59:22;100473.16;;;17.49;63.62
72262;BME280;60173;52.112;8.648;2023-07-20T08:01:48;100473.81;;;17.71;65.12
72262;BME280;60173;52.112;8.648;2023-07-20T08:04:15;100477.13;;;17.03;63.73
72262;BME280;60173;52.112;8.648;2023-07-20T08:06:41;100476.34;;;17.51;62.74
72262;BME280;60173;52.112;8.648;2023-07-20T08:09:07;100475.88;;;17.49;62.88
72262;BME280;60173;52.112;8.648;2023-07-20T08:11:34;100474.50;;;17.55;64.35
72262;BME280;60173;52.112;8.648;2023-07-20T08:14:00;100475.78;;;17.82;63.40
72262;BME280;60173;52.112;8.648;2023-07-20T08:16:27;100479.28;;;18.36;61.58
72262;BME280;60173;52.112;8.648;2023-07-20T08:18:54;100474.38;;;19.01;62.64
72262;BME280;60173;52.112;8.648;2023-07-20T08:21:20;100478.03;;;18.61;58.20
72262;BME280;60173;52.112;8.648;2023-07-20T08:23:47;100473.31;;;19.22;60.44
72262;BME280;60173;52.112;8.648;2023-07-20T08:26:13;100477.53;;;19.35;59.97
72262;BME280;60173;52.112;8.648;2023-07-20T08:28:39;100487.22;;;18.25;58.69
72262;BME280;60173;52.112;8.648;2023-07-20T08:31:06;100494.88;;;17.91;58.33
72262;BME280;60173;52.112;8.648;2023-07-20T08:33:32;100493.41;;;18.22;59.33
72262;BME280;60173;52.112;8.648;2023-07-20T08:35:58;100484.00;;;18.51;59.05
72262;BME280;60173;52.112;8.648;2023-07-20T08:38:25;100480.94;;;18.81;57.63
72262;BME280;60173;52.112;8.648;2023-07-20T08:40:51;100485.25;;;18.53;57.42
72262;BME280;60173;52.112;8.648;2023-07-20T08:43:18;100491.06;;;18.36;56.86
72262;BME280;60173;52.112;8.648;2023-07-20T08:45:45;100491.13;;;18.24;57.96
72262;BME280;60173;52.112;8.648;2023-07-20T08:48:12;100491.44;;;18.35;58.68
72262;BME280;60173;52.112;8.648;2023-07-20T08:50:39;100493.81;;;18.36;59.09
72262;BME280;60173;52.112;8.648;2023-07-20T08:53:06;100498.94;;;18.66;58.36
72262;BME280;60173;52.112;8.648;2023-07-20T08:55:33;100487.78;;;19.03;54.30
72262;BME280;60173;52.112;8.648;2023-07-20T08:58:00;100485.91;;;18.63;53.86
72262;BME280;60173;52.112;8.648;2023-07-20T09:00:27;100488.50;;;18.71;52.80
72262;BME280;60173;52.112;8.648;2023-07-20T09:02:53;100488.72;;;18.50;54.47
72262;BME280;60173;52.112;8.648;2023-07-20T09:05:21;100490.22;;;18.76;55.38
72262;BME280;60173;52.112;8.648;2023-07-20T09:07:48;100483.78;;;19.32;54.83
72262;BME280;60173;52.112;8.648;2023-07-20T09:10:14;100489.69;;;20.01;54.13
72262;BME280;60173;52.112;8.648;2023-07-20T09:12:42;100489.69;;;20.01;54.13
72262;BME280;60173;52.112;8.648;2023-07-20T09:15:09;100493.69;;;19.52;55.64
72262;BME280;60173;52.112;8.648;2023-07-20T09:17:36;100485.81;;;19.35;57.44
72262;BME280;60173;52.112;8.648;2023-07-20T09:20:06;100488.78;;;18.66;55.56
72262;BME280;60173;52.112;8.648;2023-07-20T09:22:33;100490.28;;;18.36;53.86
72262;BME280;60173;52.112;8.648;2023-07-20T09:24:59;100488.66;;;18.63;52.85
72262;BME280;60173;52.112;8.648;2023-07-20T09:27:36;100482.69;;;19.20;51.68
72262;BME280;60173;52.112;8.648;2023-07-20T09:30:03;100490.13;;;18.44;52.06
72262;BME280;60173;52.112;8.648;2023-07-20T09:32:31;100488.47;;;19.00;54.33
72262;BME280;60173;52.112;8.648;2023-07-20T09:35:00;100490.78;;;18.97;55.25
72262;BME280;60173;52.112;8.648;2023-07-20T09:37:59;100490.88;;;19.49;53.82
72262;BME280;60173;52.112;8.648;2023-07-20T09:40:28;100494.38;;;19.81;51.81
72262;BME280;60173;52.112;8.648;2023-07-20T09:42:58;100486.75;;;19.58;52.15
72262;BME280;60173;52.112;8.648;2023-07-20T09:46:01;100493.97;;;19.00;52.01
72262;BME280;60173;52.112;8.648;2023-07-20T09:48:24;100491.84;;;18.49;52.11
72262;BME280;60173;52.112;8.648;2023-07-20T09:50:53;100490.50;;;19.66;52.85
72262;BME280;60173;52.112;8.648;2023-07-20T09:53:20;100488.28;;;20.26;49.94
72262;BME280;60173;52.112;8.648;2023-07-20T09:55:47;100483.94;;;20.87;48.52
72262;BME280;60173;52.112;8.648;2023-07-20T09:58:14;100483.94;;;20.87;48.52
72262;BME280;60173;52.112;8.648;2023-07-20T10:00:41;100483.94;;;20.87;48.52
72262;BME280;60173;52.112;8.648;2023-07-20T10:03:10;100491.28;;;22.02;47.93
72262;BME280;60173;52.112;8.648;2023-07-20T10:05:54;100488.03;;;21.43;47.59
72262;BME280;60173;52.112;8.648;2023-07-20T10:08:26;100486.69;;;20.87;48.47
72262;BME280;60173;52.112;8.648;2023-07-20T10:10:59;100480.47;;;20.71;48.92
72262;BME280;60173;52.112;8.648;2023-07-20T10:13:29;100484.34;;;20.66;49.38
72262;BME280;60173;52.112;8.648;2023-07-20T10:16:07;100482.97;;;20.57;48.37
72262;BME280;60173;52.112;8.648;2023-07-20T10:19:05;100486.81;;;20.71;49.03
72262;BME280;60173;52.112;8.648;2023-07-20T10:21:47;100488.41;;;20.33;48.85
72262;BME280;60173;52.112;8.648;2023-07-20T10:24:21;100481.28;;;20.13;50.75
72262;BME280;60173;52.112;8.648;2023-07-20T10:26:49;100478.75;;;19.85;51.10
72262;BME280;60173;52.112;8.648;2023-07-20T10:29:16;100476.78;;;20.44;52.24
72262;BME280;60173;52.112;8.648;2023-07-20T10:31:43;100478.22;;;20.76;48.95
72262;BME280;60173;52.112;8.648;2023-07-20T10:34:10;100472.00;;;20.41;50.55
72262;BME280;60173;52.112;8.648;2023-07-20T10:36:44;100474.47;;;20.65;51.02
72262;BME280;60173;52.112;8.648;2023-07-20T10:39:22;100475.06;;;19.97;49.82
72262;BME280;60173;52.112;8.648;2023-07-20T10:41:49;100469.00;;;19.56;49.88
72262;BME280;60173;52.112;8.648;2023-07-20T10:44:19;100468.69;;;19.41;52.00
72262;BME280;60173;52.112;8.648;2023-07-20T10:46:46;100469.84;;;19.76;50.97
72262;BME280;60173;52.112;8.648;2023-07-20T10:49:13;100470.41;;;20.59;51.01
72262;BME280;60173;52.112;8.648;2023-07-20T10:51:46;100470.72;;;21.46;48.46
72262;BME280;60173;52.112;8.648;2023-07-20T10:56:42;100472.31;;;21.74;44.33
72262;BME280;60173;52.112;8.648;2023-07-20T11:01:57;100470.56;;;21.12;49.39
72262;BME280;60173;52.112;8.648;2023-07-20T11:04:39;100462.97;;;21.82;46.33
72262;BME280;60173;52.112;8.648;2023-07-20T11:07:06;100469.66;;;21.54;46.47
72262;BME280;60173;52.112;8.648;2023-07-20T11:09:39;100473.63;;;21.07;48.81
72262;BME280;60173;52.112;8.648;2023-07-20T11:12:09;100472.69;;;21.22;47.39
72262;BME280;60173;52.112;8.648;2023-07-20T11:14:36;100460.09;;;21.48;43.54
72262;BME280;60173;52.112;8.648;2023-07-20T11:17:13;100463.25;;;21.24;44.71
72262;BME280;60173;52.112;8.648;2023-07-20T11:19:39;100462.13;;;21.51;45.22
72262;BME280;60173;52.112;8.648;2023-07-20T11:22:09;100456.56;;;21.48;45.14
72262;BME280;60173;52.112;8.648;2023-07-20T11:24:39;100461.50;;;21.61;45.11
72262;BME280;60173;52.112;8.648;2023-07-20T11:27:05;100451.81;;;22.05;46.06
72262;BME280;60173;52.112;8.648;2023-07-20T11:29:32;100454.53;;;22.31;42.58
72262;BME280;60173;52.112;8.648;2023-07-20T11:32:00;100456.28;;;21.86;43.86
72262;BME280;60173;52.112;8.648;2023-07-20T11:34:27;100444.63;;;22.00;43.60
72262;BME280;60173;52.112;8.648;2023-07-20T11:36:53;100445.94;;;21.80;42.23
72262;BME280;60173;52.112;8.648;2023-07-20T11:39:23;100449.09;;;21.52;43.22
72262;BME280;60173;52.112;8.648;2023-07-20T11:41:50;100442.03;;;21.54;43.22
72262;BME280;60173;52.112;8.648;2023-07-20T11:44:17;100447.91;;;22.09;42.85
72262;BME280;60173;52.112;8.648;2023-07-20T11:46:44;100437.78;;;22.54;43.43
72262;BME280;60173;52.112;8.648;2023-07-20T11:49:11;100432.97;;;22.92;39.98
72262;BME280;60173;52.112;8.648;2023-07-20T11:51:37;100445.69;;;22.56;42.63
72262;BME280;60173;52.112;8.648;2023-07-20T11:54:05;100437.19;;;22.38;42.10
72262;BME280;60173;52.112;8.648;2023-07-20T11:56:32;100431.91;;;22.60;43.45
72262;BME280;60173;52.112;8.648;2023-07-20T11:58:58;100431.34;;;22.88;42.72
72262;BME280;60173;52.112;8.648;2023-07-20T12:01:25;100428.16;;;23.30;42.21
72262;BME280;60173;52.112;8.648;2023-07-20T12:03:52;100427.84;;;23.42;39.16
72262;BME280;60173;52.112;8.648;2023-07-20T12:06:18;100426.34;;;23.52;40.87
72262;BME280;60173;52.112;8.648;2023-07-20T12:08:53;100420.72;;;23.41;40.09
72262;BME280;60173;52.112;8.648;2023-07-20T12:11:36;100427.69;;;23.21;42.16
72262;BME280;60173;52.112;8.648;2023-07-20T12:14:08;100430.00;;;23.12;41.32
72262;BME280;60173;52.112;8.648;2023-07-20T12:16:43;100424.69;;;22.51;40.82
72262;BME280;60173;52.112;8.648;2023-07-20T12:19:10;100419.44;;;22.80;41.72
72262;BME280;60173;52.112;8.648;2023-07-20T12:21:38;100421.53;;;22.53;42.24
72262;BME280;60173;52.112;8.648;2023-07-20T12:24:05;100414.38;;;22.93;42.33
72262;BME280;60173;52.112;8.648;2023-07-20T12:26:32;100428.63;;;22.50;41.54
72262;BME280;60173;52.112;8.648;2023-07-20T12:28:59;100422.38;;;22.57;42.51
72262;BME280;60173;52.112;8.648;2023-07-20T12:31:27;100427.50;;;22.55;42.59
72262;BME280;60173;52.112;8.648;2023-07-20T12:33:54;100419.31;;;21.98;43.23
72262;BME280;60173;52.112;8.648;2023-07-20T12:36:20;100424.38;;;21.62;44.65
72262;BME280;60173;52.112;8.648;2023-07-20T12:38:47;100423.94;;;21.34;44.81
72262;BME280;60173;52.112;8.648;2023-07-20T12:41:14;100424.66;;;21.54;45.25
72262;BME280;60173;52.112;8.648;2023-07-20T12:43:41;100424.56;;;22.37;43.02
72262;BME280;60173;52.112;8.648;2023-07-20T12:46:09;100422.13;;;22.73;42.13
72262;BME280;60173;52.112;8.648;2023-07-20T12:48:36;100420.75;;;22.52;43.09
72262;BME280;60173;52.112;8.648;2023-07-20T12:51:03;100413.53;;;22.85;43.56
72262;BME280;60173;52.112;8.648;2023-07-20T12:53:31;100406.13;;;22.96;41.63
72262;BME280;60173;52.112;8.648;2023-07-20T12:55:58;100407.66;;;23.45;42.53
72262;BME280;60173;52.112;8.648;2023-07-20T12:58:24;100407.69;;;24.36;41.01
72262;BME280;60173;52.112;8.648;2023-07-20T13:00:51;100406.97;;;24.90;39.08
72262;BME280;60173;52.112;8.648;2023-07-20T13:03:17;100399.81;;;24.74;38.18
72262;BME280;60173;52.112;8.648;2023-07-20T13:05:46;100404.53;;;24.42;37.61